Time;durP1;ratioP1;P1;durP2;ratioP2;P2;SDS_P1;SDS_P2;PMS_P1;PMS_P2;Temp;Humidity;BMP_temperature;BMP_pressure;BME280_temperature;BME280_humidity;BME280_pressure;Samples;Min_cycle;Max_cycle;Signal;HPM_P1;HPM_P2
2021/03/10 00:02:29;;;;;;;12.30;10.90;;;8.00;31.60;;;;;;10440770;28;20221;-72
2021/03/10 00:07:40;;;;;;;11.20;10.10;;;8.00;31.80;;;;;;10437800;28;20713;-73
2021/03/10 00:12:42;;;;;;;10.70;9.70;;;8.00;31.80;;;;;;10439448;28;20595;-73
2021/03/10 00:17:45;;;;;;;10.70;9.77;;;8.00;31.80;;;;;;10435636;28;20236;-73
2021/03/10 00:22:48;;;;;;;9.57;8.57;;;8.10;31.90;;;;;;10440188;28;20287;-73
2021/03/10 00:27:50;;;;;;;10.03;9.13;;;8.00;32.00;;;;;;10436135;28;20227;-73
2021/03/10 00:32:53;;;;;;;15.30;10.97;;;8.00;31.90;;;;;;10434681;28;20233;-73
2021/03/10 00:38:05;;;;;;;12.40;11.20;;;7.90;31.90;;;;;;10438948;28;20229;-72
2021/03/10 00:43:07;;;;;;;12.00;10.80;;;7.90;32.30;;;;;;10433911;28;20327;-73
2021/03/10 00:48:10;;;;;;;11.50;10.40;;;7.90;32.20;;;;;;10438695;28;20722;-73
2021/03/10 00:53:13;;;;;;;9.67;8.67;;;7.80;32.10;;;;;;10433606;28;20276;-73
2021/03/10 00:58:15;;;;;;;10.50;9.43;;;7.70;32.30;;;;;;10434778;28;20311;-73
2021/03/10 01:03:17;;;;;;;13.30;12.00;;;7.60;32.30;;;;;;10431901;28;20241;-73
2021/03/10 01:08:24;;;;;;;12.97;11.77;;;7.50;32.70;;;;;;10434032;28;20227;-73
2021/03/10 01:13:26;;;;;;;12.93;11.63;;;7.50;32.70;;;;;;10431323;28;20604;-73
2021/03/10 01:18:28;;;;;;;12.97;11.60;;;7.50;32.80;;;;;;10437288;28;20229;-73
2021/03/10 01:23:31;;;;;;;11.70;10.50;;;7.40;32.70;;;;;;10438145;28;20244;-73
2021/03/10 01:28:34;;;;;;;12.60;11.30;;;7.30;32.90;;;;;;10428510;28;20221;-73
2021/03/10 01:33:36;;;;;;;11.33;10.23;;;7.30;33.10;;;;;;10439782;28;20694;-74
2021/03/10 01:38:47;;;;;;;12.53;10.70;;;7.20;33.20;;;;;;10436622;28;20220;-73
2021/03/10 01:43:49;;;;;;;12.23;11.03;;;7.20;33.40;;;;;;10437060;28;20737;-73
2021/03/10 01:48:51;;;;;;;12.60;11.43;;;7.20;33.30;;;;;;10434667;28;20248;-73
2021/03/10 01:53:55;;;;;;;13.03;11.70;;;7.20;33.20;;;;;;10431983;28;20231;-74
2021/03/10 01:58:58;;;;;;;14.30;12.80;;;7.10;33.50;;;;;;10432898;28;20237;-73
2021/03/10 02:04:02;;;;;;;15.67;13.27;;;7.00;33.60;;;;;;10434613;28;20253;-73
2021/03/10 02:09:13;;;;;;;13.27;11.97;;;7.00;34.00;;;;;;10433034;28;20221;-73
2021/03/10 02:14:23;;;;;;;15.77;13.83;;;6.90;34.50;;;;;;10433094;28;20235;-68
2021/03/10 02:20:00;;;;;;;14.63;13.30;;;6.90;34.80;;;;;;10434155;28;20244;-68
2021/03/10 02:25:11;;;;;;;16.27;14.53;;;6.80;35.30;;;;;;10431115;28;20225;-69
2021/03/10 02:30:18;;;;;;;15.37;13.83;;;6.80;35.20;;;;;;10432453;28;20228;-68
2021/03/10 02:35:21;;;;;;;16.07;14.50;;;6.80;34.90;;;;;;10435315;28;20278;-72
2021/03/10 02:40:25;;;;;;;17.73;15.93;;;6.80;34.10;;;;;;10434404;28;20233;-71
2021/03/10 02:45:29;;;;;;;16.83;15.23;;;6.80;34.30;;;;;;10429157;28;20242;-71
2021/03/10 02:50:32;;;;;;;17.93;16.23;;;6.80;34.80;;;;;;10430912;28;20760;-71
2021/03/10 02:55:34;;;;;;;17.40;15.67;;;6.70;34.50;;;;;;10434746;28;20324;-71
2021/03/10 03:00:38;;;;;;;17.13;15.43;;;6.70;34.50;;;;;;10430226;28;20233;-71
2021/03/10 03:05:40;;;;;;;17.73;15.83;;;6.70;35.00;;;;;;10435816;28;20576;-71
2021/03/10 03:10:43;;;;;;;17.73;16.03;;;6.60;34.70;;;;;;10432250;28;20252;-71
2021/03/10 03:15:51;;;;;;;17.83;16.03;;;6.60;34.80;;;;;;10430228;28;20224;-71
2021/03/10 03:20:54;;;;;;;18.13;16.17;;;6.60;36.00;;;;;;10435197;28;20228;-71
2021/03/10 03:26:01;;;;;;;18.47;16.70;;;6.60;35.10;;;;;;10442688;28;20237;-71
2021/03/10 03:31:04;;;;;;;18.23;16.33;;;6.60;35.40;;;;;;10442725;28;20238;-71
2021/03/10 03:36:09;;;;;;;18.33;16.53;;;6.60;35.30;;;;;;10439723;28;20641;-71
2021/03/10 03:41:12;;;;;;;17.83;16.03;;;6.60;35.60;;;;;;10439398;28;20313;-71
2021/03/10 03:46:16;;;;;;;18.93;17.03;;;6.60;35.30;;;;;;10438243;28;21142;-71
2021/03/10 03:51:24;;;;;;;18.50;16.60;;;6.60;35.50;;;;;;10437836;28;20311;-71
2021/03/10 03:56:27;;;;;;;19.43;17.53;;;6.60;36.50;;;;;;10464862;23;20226;-66
2021/03/10 04:01:30;;;;;;;18.23;16.40;;;6.60;35.70;;;;;;10400188;28;20225;-66
2021/03/10 04:06:32;;;;;;;19.43;17.43;;;6.70;35.90;;;;;;10398190;28;20324;-66
2021/03/10 04:11:35;;;;;;;18.20;16.33;;;6.80;35.50;;;;;;10389490;28;20226;-66
2021/03/10 04:16:38;;;;;;;19.93;17.83;;;6.80;35.50;;;;;;10372197;28;20665;-66
2021/03/10 04:21:40;;;;;;;20.57;18.50;;;6.80;35.80;;;;;;10383471;28;20729;-66
2021/03/10 04:26:42;;;;;;;23.23;20.83;;;6.80;35.60;;;;;;10389232;28;20252;-66
2021/03/10 04:31:45;;;;;;;22.27;20.03;;;6.80;35.60;;;;;;10393505;28;20235;-66
2021/03/10 04:36:48;;;;;;;24.37;21.80;;;6.80;35.90;;;;;;10382968;28;20226;-66
2021/03/10 04:41:50;;;;;;;26.73;23.87;;;6.80;35.80;;;;;;10383030;28;20633;-66
2021/03/10 04:46:53;;;;;;;25.67;22.77;;;6.80;35.80;;;;;;10371331;28;20241;-66
2021/03/10 04:51:55;;;;;;;25.17;21.97;;;6.90;36.20;;;;;;10394499;28;20687;-65
2021/03/10 04:56:57;;;;;;;24.43;21.93;;;6.90;36.00;;;;;;10383667;28;20261;-66
2021/03/10 05:02:00;;;;;;;22.70;20.53;;;6.90;36.00;;;;;;10391618;28;20237;-67
2021/03/10 05:07:03;;;;;;;22.93;20.63;;;6.90;36.20;;;;;;10419993;28;20756;-66
2021/03/10 05:12:06;;;;;;;23.37;21.00;;;6.90;36.10;;;;;;10435389;28;20218;-66
2021/03/10 05:17:09;;;;;;;24.50;22.00;;;7.00;36.20;;;;;;10419351;28;20226;-66
2021/03/10 05:22:11;;;;;;;25.07;22.43;;;7.00;36.50;;;;;;10429472;28;20295;-66
2021/03/10 05:27:14;;;;;;;24.37;21.77;;;7.00;36.10;;;;;;10427415;28;20234;-66
2021/03/10 05:32:17;;;;;;;26.27;23.57;;;7.00;36.30;;;;;;10424131;28;20271;-66
2021/03/10 05:37:19;;;;;;;25.90;23.27;;;7.00;36.40;;;;;;10409529;28;20308;-69
2021/03/10 05:42:22;;;;;;;24.80;22.23;;;7.00;36.30;;;;;;10431230;28;20233;-70
2021/03/10 05:47:25;;;;;;;25.00;22.40;;;7.00;36.30;;;;;;10423625;28;20235;-69
2021/03/10 05:52:29;;;;;;;23.07;20.70;;;7.00;36.50;;;;;;10426894;28;20680;-68
2021/03/10 05:57:31;;;;;;;25.63;23.03;;;7.00;36.40;;;;;;10432204;28;20243;-69
2021/03/10 06:02:36;;;;;;;24.10;21.63;;;7.00;36.40;;;;;;10415379;28;20396;-69
2021/03/10 06:07:38;;;;;;;25.57;22.90;;;7.00;36.80;;;;;;10424317;28;20290;-70
2021/03/10 06:12:42;;;;;;;25.00;22.33;;;7.00;36.40;;;;;;10419648;28;20228;-69
2021/03/10 06:17:46;;;;;;;25.37;22.67;;;7.00;36.70;;;;;;10415368;28;20222;-70
2021/03/10 06:22:49;;;;;;;25.07;22.57;;;7.00;36.90;;;;;;10419368;28;20228;-69
2021/03/10 06:27:53;;;;;;;24.90;22.27;;;7.00;36.60;;;;;;10427664;28;20235;-70
2021/03/10 06:32:56;;;;;;;24.93;22.33;;;7.00;36.80;;;;;;10415489;28;20613;-71
2021/03/10 06:38:12;;;;;;;25.73;23.03;;;7.00;36.80;;;;;;10415535;28;20677;-69
2021/03/10 06:43:14;;;;;;;23.33;20.67;;;6.90;38.30;;;;;;10414715;28;20224;-72
2021/03/10 06:48:19;;;;;;;24.07;21.60;;;6.90;36.70;;;;;;10420712;28;20231;-69
2021/03/10 06:53:31;;;;;;;18.20;15.87;;;6.90;37.20;;;;;;10423380;28;20641;-69
2021/03/10 06:58:33;;;;;;;24.63;22.03;;;7.00;40.50;;;;;;10423979;28;20225;-69
2021/03/10 07:03:38;;;;;;;23.83;21.43;;;7.10;37.50;;;;;;10441418;28;20216;-71
2021/03/10 07:08:42;;;;;;;24.00;21.30;;;7.20;37.90;;;;;;10417668;28;20237;-70
2021/03/10 07:13:45;;;;;;;24.47;21.67;;;7.20;37.70;;;;;;10407152;28;20226;-70
2021/03/10 07:18:48;;;;;;;24.00;21.40;;;7.30;37.20;;;;;;10418061;28;20587;-70
2021/03/10 07:23:53;;;;;;;23.37;20.90;;;7.30;37.30;;;;;;10419258;28;20224;-70
2021/03/10 07:29:02;;;;;;;25.20;22.60;;;7.30;37.70;;;;;;10437375;28;20290;-69
2021/03/10 07:34:05;;;;;;;21.13;18.97;;;7.30;37.60;;;;;;10423454;28;20229;-70
2021/03/10 07:39:20;;;;;;;24.40;21.80;;;7.40;37.60;;;;;;10431921;28;20315;-69
2021/03/10 07:44:24;;;;;;;23.97;21.53;;;7.40;38.70;;;;;;10426768;28;20313;-69
2021/03/10 07:49:27;;;;;;;24.83;22.23;;;7.50;37.60;;;;;;10415821;28;20598;-69
2021/03/10 07:54:29;;;;;;;25.73;22.93;;;7.50;37.70;;;;;;10427187;28;20236;-72
2021/03/10 07:59:32;;;;;;;23.30;20.80;;;7.60;37.40;;;;;;10413111;28;20229;-70
2021/03/10 08:04:37;;;;;;;27.43;22.90;;;7.60;37.50;;;;;;10425542;28;20229;-71
2021/03/10 08:09:49;;;;;;;24.60;21.63;;;7.60;38.10;;;;;;10433803;28;20311;-71
2021/03/10 08:14:52;;;;;;;25.83;23.07;;;7.70;39.00;;;;;;10448820;28;20308;-71
2021/03/10 08:19:56;;;;;;;24.97;22.27;;;7.70;37.80;;;;;;10432737;28;20676;-71
2021/03/10 08:25:00;;;;;;;25.23;22.37;;;7.80;38.30;;;;;;10430158;28;20606;-71
2021/03/10 08:30:05;;;;;;;26.87;22.80;;;7.80;37.80;;;;;;10442362;28;20324;-71
2021/03/10 08:35:10;;;;;;;26.13;23.30;;;7.90;38.30;;;;;;10437591;28;20229;-70
2021/03/10 08:40:18;;;;;;;24.63;21.97;;;8.00;38.30;;;;;;10425578;28;20313;-71
2021/03/10 08:45:22;;;;;;;26.90;23.47;;;8.00;38.10;;;;;;10439068;28;20256;-71
2021/03/10 08:50:29;;;;;;;25.87;23.00;;;8.00;38.20;;;;;;10428235;28;20231;-71
2021/03/10 08:55:32;;;;;;;27.23;24.00;;;8.10;39.10;;;;;;10423552;28;20225;-71
2021/03/10 09:00:34;;;;;;;28.97;23.80;;;8.20;38.10;;;;;;10439613;28;20225;-71
2021/03/10 09:05:38;;;;;;;27.80;24.10;;;8.30;38.20;;;;;;10426887;28;20321;-71
2021/03/10 09:10:46;;;;;;;27.23;23.67;;;8.30;38.40;;;;;;10428451;28;20739;-71
2021/03/10 09:15:49;;;;;;;27.13;24.00;;;8.40;38.70;;;;;;10437949;28;20231;-72
2021/03/10 09:20:53;;;;;;;27.27;23.80;;;8.40;37.90;;;;;;10426484;28;20653;-71
2021/03/10 09:25:56;;;;;;;28.67;24.43;;;8.50;38.00;;;;;;10435310;28;20255;-71
2021/03/10 09:30:58;;;;;;;26.60;23.20;;;8.60;38.10;;;;;;10436379;28;20220;-68
2021/03/10 09:36:02;;;;;;;27.83;23.57;;;8.60;38.10;;;;;;10423594;28;20237;-68
2021/03/10 09:41:06;;;;;;;26.53;22.87;;;8.70;38.50;;;;;;10428111;28;20316;-68
2021/03/10 09:46:09;;;;;;;26.00;22.50;;;8.80;38.20;;;;;;10429620;28;20225;-68
2021/03/10 09:51:15;;;;;;;25.67;22.33;;;8.90;38.20;;;;;;10433472;28;20686;-70
2021/03/10 09:56:19;;;;;;;24.80;22.00;;;9.00;38.10;;;;;;10420911;28;20675;-69
2021/03/10 10:01:22;;;;;;;21.87;19.40;;;9.10;37.90;;;;;;10435345;28;20320;-69
2021/03/10 10:06:26;;;;;;;23.67;20.77;;;9.20;37.70;;;;;;10439423;28;20224;-69
2021/03/10 10:11:28;;;;;;;26.43;21.40;;;9.30;37.60;;;;;;10426775;28;20599;-69
2021/03/10 10:16:31;;;;;;;24.17;20.90;;;9.40;37.00;;;;;;10429502;28;20324;-67
2021/03/10 10:21:38;;;;;;;25.63;22.13;;;9.40;36.90;;;;;;10414835;28;20217;-67
2021/03/10 10:26:40;;;;;;;21.00;18.70;;;9.50;37.10;;;;;;10432711;28;20229;-67
2021/03/10 10:31:43;;;;;;;21.17;18.77;;;9.50;36.80;;;;;;10424702;28;20768;-67
2021/03/10 10:36:46;;;;;;;21.47;18.10;;;9.50;36.30;;;;;;10411227;28;20225;-67
2021/03/10 10:41:54;;;;;;;21.23;17.83;;;9.60;36.30;;;;;;10421988;28;20700;-67
2021/03/10 10:46:56;;;;;;;23.43;19.17;;;9.70;36.40;;;;;;10422511;28;20320;-67
2021/03/10 10:51:59;;;;;;;21.63;19.13;;;9.70;36.20;;;;;;10413356;28;20236;-70
2021/03/10 10:57:02;;;;;;;19.93;17.63;;;9.70;36.30;;;;;;10409487;28;20221;-67
2021/03/10 11:02:04;;;;;;;20.00;17.07;;;9.80;35.80;;;;;;10419305;28;20241;-68
2021/03/10 11:07:08;;;;;;;18.73;16.73;;;9.90;35.60;;;;;;10411920;28;20220;-68
2021/03/10 11:12:12;;;;;;;20.00;17.17;;;9.90;35.00;;;;;;10424157;28;20712;-67
2021/03/10 11:17:14;;;;;;;19.17;17.17;;;10.00;34.40;;;;;;10418181;28;20240;-67
2021/03/10 11:22:17;;;;;;;20.27;16.37;;;10.00;34.10;;;;;;10415971;28;20599;-67
2021/03/10 11:27:21;;;;;;;19.10;16.83;;;10.00;34.00;;;;;;10424549;28;20255;-67
2021/03/10 11:32:23;;;;;;;17.80;15.90;;;10.10;34.00;;;;;;10415153;28;20734;-67
2021/03/10 11:37:27;;;;;;;18.30;16.33;;;10.10;34.00;;;;;;10421505;28;20315;-67
2021/03/10 11:42:29;;;;;;;19.83;16.60;;;10.10;34.00;;;;;;10418409;28;20644;-67
2021/03/10 11:47:31;;;;;;;21.33;17.90;;;10.20;33.90;;;;;;10428432;28;20234;-67
2021/03/10 11:52:35;;;;;;;20.73;17.53;;;10.20;33.80;;;;;;10433979;28;20225;-67
2021/03/10 11:57:37;;;;;;;20.33;17.80;;;10.20;33.90;;;;;;10420614;28;20716;-69
2021/03/10 12:02:40;;;;;;;18.93;16.50;;;10.20;33.90;;;;;;10412794;28;20304;-68
2021/03/10 12:07:44;;;;;;;17.30;14.43;;;10.20;33.70;;;;;;10415094;28;20528;-68
2021/03/10 12:12:46;;;;;;;16.57;14.73;;;10.20;33.70;;;;;;10427658;28;20316;-68
2021/03/10 12:17:48;;;;;;;16.67;13.73;;;10.20;33.90;;;;;;10431879;28;20228;-68
2021/03/10 12:22:51;;;;;;;16.60;14.90;;;10.30;33.80;;;;;;10418895;28;20640;-68
2021/03/10 12:27:55;;;;;;;18.47;15.33;;;10.30;33.70;;;;;;10411297;28;20246;-68
2021/03/10 12:32:57;;;;;;;16.27;14.53;;;10.40;34.50;;;;;;10428910;28;20231;-68
2021/03/10 12:38:03;;;;;;;15.90;14.23;;;10.50;33.60;;;;;;10425399;28;20236;-69
2021/03/10 12:43:24;;;;;;;17.10;15.30;;;10.60;33.70;;;;;;10422130;28;20246;-67
2021/03/10 12:48:27;;;;;;;17.97;15.97;;;10.80;33.50;;;;;;10420616;28;20701;-67
2021/03/10 12:53:30;;;;;;;19.03;17.03;;;10.90;33.10;;;;;;10410807;28;20230;-68
2021/03/10 12:58:32;;;;;;;18.37;15.70;;;10.90;32.90;;;;;;10425810;28;20659;-66
2021/03/10 13:03:35;;;;;;;18.53;16.60;;;11.00;33.00;;;;;;10426338;28;20232;-68
2021/03/10 13:08:42;;;;;;;19.50;17.40;;;11.00;33.00;;;;;;10419753;28;20240;-68
2021/03/10 13:13:44;;;;;;;20.10;17.87;;;11.00;32.70;;;;;;10427838;28;20221;-68
2021/03/10 13:18:47;;;;;;;20.33;17.63;;;11.00;33.00;;;;;;10423694;28;20633;-68
2021/03/10 13:23:50;;;;;;;20.00;17.90;;;11.00;33.00;;;;;;10431901;28;20700;-68
2021/03/10 13:28:53;;;;;;;18.97;16.97;;;11.00;32.90;;;;;;10426157;28;20295;-68
2021/03/10 13:33:55;;;;;;;18.57;16.43;;;10.90;33.10;;;;;;10427102;28;20235;-69
2021/03/10 13:38:58;;;;;;;15.77;14.17;;;11.00;33.20;;;;;;10420277;28;20229;-69
2021/03/10 13:44:01;;;;;;;17.27;15.47;;;11.00;33.10;;;;;;10426675;28;20323;-68
2021/03/10 13:49:04;;;;;;;18.90;16.90;;;11.10;32.90;;;;;;10425965;28;20243;-69
2021/03/10 13:54:07;;;;;;;19.93;17.83;;;11.10;32.70;;;;;;10397169;28;20313;-68
2021/03/10 13:59:10;;;;;;;19.00;16.93;;;11.10;32.70;;;;;;10412082;28;20310;-69
2021/03/10 14:04:12;;;;;;;20.47;18.13;;;11.10;32.70;;;;;;10429433;28;20235;-69
2021/03/10 14:09:15;;;;;;;17.90;16.00;;;11.10;32.40;;;;;;10415437;28;20595;-69
2021/03/10 14:14:17;;;;;;;17.23;15.43;;;11.10;32.80;;;;;;10422835;28;20302;-69
2021/03/10 14:19:20;;;;;;;17.77;15.97;;;11.20;32.90;;;;;;10405320;28;20226;-69
2021/03/10 14:24:23;;;;;;;19.90;16.97;;;11.30;32.90;;;;;;10408813;28;20235;-68
2021/03/10 14:29:25;;;;;;;19.53;16.40;;;11.40;32.60;;;;;;10417560;28;20234;-67
2021/03/10 14:34:27;;;;;;;18.03;15.83;;;11.40;32.60;;;;;;10414668;28;20312;-68
2021/03/10 14:39:30;;;;;;;18.93;16.93;;;11.50;32.50;;;;;;10415506;28;20788;-68
2021/03/10 14:44:33;;;;;;;18.93;16.97;;;11.50;32.40;;;;;;10424316;28;20235;-69
2021/03/10 14:49:35;;;;;;;18.07;16.27;;;11.60;32.50;;;;;;10420327;28;20307;-69
2021/03/10 14:54:38;;;;;;;17.57;15.77;;;11.60;32.30;;;;;;10413390;28;20287;-69
2021/03/10 14:59:40;;;;;;;17.40;15.33;;;11.60;32.20;;;;;;10425734;28;20226;-69
2021/03/10 15:04:43;;;;;;;21.03;18.27;;;11.50;32.20;;;;;;10418843;28;20222;-69
2021/03/10 15:09:47;;;;;;;18.20;16.30;;;11.60;32.30;;;;;;10431777;28;20231;-68
2021/03/10 15:14:50;;;;;;;18.17;16.23;;;11.60;32.40;;;;;;10427175;28;20228;-68
2021/03/10 15:19:52;;;;;;;18.57;16.50;;;11.60;32.30;;;;;;10439464;28;20225;-69
2021/03/10 15:24:56;;;;;;;17.23;15.37;;;11.60;32.30;;;;;;10441495;28;20225;-69
2021/03/10 15:29:58;;;;;;;16.53;14.87;;;11.60;32.10;;;;;;10439109;28;20222;-70
2021/03/10 15:35:01;;;;;;;17.07;15.27;;;11.70;32.30;;;;;;10436530;28;20647;-69
2021/03/10 15:40:06;;;;;;;16.57;14.53;;;11.80;32.20;;;;;;10431615;28;20764;-69
2021/03/10 15:45:10;;;;;;;18.13;16.23;;;11.80;31.80;;;;;;10437214;28;20620;-68
2021/03/10 15:50:15;;;;;;;16.83;15.07;;;11.90;31.90;;;;;;10431405;28;20240;-68
2021/03/10 15:55:19;;;;;;;17.13;15.43;;;11.90;31.90;;;;;;10421809;28;20229;-69
2021/03/10 16:00:23;;;;;;;17.23;15.43;;;11.90;31.40;;;;;;10422243;28;20236;-69
2021/03/10 16:05:26;;;;;;;15.43;13.90;;;11.90;31.40;;;;;;10420407;28;20240;-69
2021/03/10 16:10:33;;;;;;;17.23;14.47;;;11.90;31.40;;;;;;10424458;28;20225;-69
2021/03/10 16:15:36;;;;;;;17.30;15.50;;;11.90;31.30;;;;;;10424616;28;20584;-69
2021/03/10 16:20:38;;;;;;;17.00;15.30;;;11.90;31.20;;;;;;10431412;28;20236;-68
2021/03/10 16:25:42;;;;;;;16.97;15.17;;;11.90;31.20;;;;;;10435247;28;20237;-69
2021/03/10 16:30:44;;;;;;;16.67;14.87;;;11.90;30.90;;;;;;10424792;28;20806;-69
2021/03/10 16:35:46;;;;;;;16.60;14.90;;;11.80;31.10;;;;;;10415071;28;20283;-67
2021/03/10 16:40:49;;;;;;;18.13;15.50;;;11.70;31.10;;;;;;10424214;28;20257;-67
2021/03/10 16:45:51;;;;;;;16.63;14.93;;;11.70;30.90;;;;;;10423527;28;20356;-67
2021/03/10 16:50:57;;;;;;;16.83;15.03;;;11.70;31.10;;;;;;10429977;28;20792;-67
2021/03/10 16:56:04;;;;;;;19.03;14.73;;;11.60;31.10;;;;;;10422779;28;20308;-67
2021/03/10 17:01:06;;;;;;;16.20;14.50;;;11.60;30.90;;;;;;10421176;28;20237;-67
2021/03/10 17:06:09;;;;;;;16.60;13.33;;;11.50;31.10;;;;;;10424370;28;20244;-67
2021/03/10 17:11:12;;;;;;;14.47;12.63;;;11.50;31.30;;;;;;10420955;28;20234;-67
2021/03/10 17:16:14;;;;;;;18.90;15.30;;;11.40;31.40;;;;;;10431709;28;20235;-67
2021/03/10 17:21:17;;;;;;;19.23;15.97;;;11.40;31.50;;;;;;10421192;28;20629;-67
2021/03/10 17:26:20;;;;;;;18.13;16.23;;;11.40;31.40;;;;;;10434936;28;20230;-67
2021/03/10 17:31:22;;;;;;;18.43;16.43;;;11.40;31.50;;;;;;10422719;28;20344;-67
2021/03/10 17:36:24;;;;;;;15.37;13.70;;;11.30;31.30;;;;;;10423264;28;20658;-67
2021/03/10 17:41:27;;;;;;;16.03;14.33;;;11.30;31.20;;;;;;10419670;28;20309;-67
2021/03/10 17:46:30;;;;;;;15.87;14.17;;;11.20;31.30;;;;;;10414263;28;20230;-67
2021/03/10 17:51:32;;;;;;;18.43;15.00;;;11.10;31.20;;;;;;10426924;28;20723;-68
2021/03/10 17:56:35;;;;;;;15.97;14.07;;;11.00;31.10;;;;;;10423974;28;20237;-67
2021/03/10 18:01:37;;;;;;;17.33;14.20;;;10.90;31.10;;;;;;10428062;28;20233;-67
2021/03/10 18:06:40;;;;;;;19.67;16.30;;;10.80;31.10;;;;;;10424974;28;20306;-67
2021/03/10 18:11:43;;;;;;;22.10;16.67;;;10.70;31.20;;;;;;10438502;28;20649;-67
2021/03/10 18:16:47;;;;;;;18.13;16.20;;;10.60;31.20;;;;;;10415469;28;20605;-67
2021/03/10 18:21:49;;;;;;;18.50;16.60;;;10.50;31.20;;;;;;10425037;28;20236;-67
2021/03/10 18:26:52;;;;;;;22.47;17.90;;;10.40;31.20;;;;;;10424913;28;20229;-67
2021/03/10 18:31:55;;;;;;;23.57;18.87;;;10.20;31.10;;;;;;10404352;28;20299;-67
2021/03/10 18:36:57;;;;;;;24.47;19.27;;;10.20;31.30;;;;;;10395609;28;20461;-67
2021/03/10 18:42:00;;;;;;;28.10;22.80;;;10.10;31.20;;;;;;10426338;28;20619;-67
2021/03/10 18:47:03;;;;;;;26.50;22.57;;;10.00;31.10;;;;;;10417437;28;20272;-67
2021/03/10 18:52:06;;;;;;;30.03;24.33;;;9.90;32.00;;;;;;10429373;28;20280;-67
2021/03/10 18:57:09;;;;;;;25.47;22.70;;;9.70;32.10;;;;;;10424282;28;20290;-67
2021/03/10 19:02:12;;;;;;;22.83;19.70;;;9.60;32.20;;;;;;10419847;28;20573;-67
2021/03/10 19:07:15;;;;;;;20.87;18.00;;;9.50;32.40;;;;;;10414852;28;20225;-67
2021/03/10 19:12:18;;;;;;;22.00;18.67;;;9.40;32.40;;;;;;10424810;28;20307;-67
2021/03/10 19:17:20;;;;;;;17.17;14.63;;;9.30;32.40;;;;;;10423206;28;20790;-68
2021/03/10 19:22:27;;;;;;;20.90;18.03;;;9.30;32.40;;;;;;10423639;28;20639;-68
2021/03/10 19:27:30;;;;;;;19.23;16.90;;;9.20;32.50;;;;;;10413574;28;20258;-67
2021/03/10 19:32:33;;;;;;;23.13;19.27;;;9.20;32.60;;;;;;10404452;28;20856;-68
2021/03/10 19:37:35;;;;;;;23.60;18.67;;;9.10;32.60;;;;;;10400249;28;20603;-68
2021/03/10 19:42:39;;;;;;;24.10;20.40;;;9.10;32.60;;;;;;10419775;28;20226;-67
2021/03/10 19:47:42;;;;;;;22.67;18.83;;;9.10;32.70;;;;;;10419893;28;20223;-67
2021/03/10 19:52:46;;;;;;;24.50;20.93;;;9.00;32.60;;;;;;10408268;28;20578;-67
2021/03/10 19:57:51;;;;;;;21.03;17.03;;;8.90;32.70;;;;;;10412269;28;20221;-67
2021/03/10 20:02:53;;;;;;;19.00;15.40;;;8.90;32.80;;;;;;10406883;28;20236;-67
2021/03/10 20:07:56;;;;;;;21.93;18.73;;;8.80;32.60;;;;;;10413622;28;20232;-70
2021/03/10 20:12:59;;;;;;;18.20;16.23;;;8.70;32.70;;;;;;10425901;28;20364;-70
2021/03/10 20:18:01;;;;;;;23.67;19.43;;;8.70;32.80;;;;;;10424673;28;20239;-68
2021/03/10 20:23:13;;;;;;;17.43;14.83;;;8.60;32.60;;;;;;10410851;28;20314;-70
2021/03/10 20:28:17;;;;;;;23.90;19.63;;;8.50;32.50;;;;;;10424159;28;20217;-70
2021/03/10 20:33:19;;;;;;;27.67;24.50;;;8.40;32.60;;;;;;10429487;28;20568;-70
2021/03/10 20:38:21;;;;;;;22.40;20.00;;;8.30;32.70;;;;;;10425193;28;20260;-70
2021/03/10 20:43:24;;;;;;;23.50;21.03;;;8.20;32.80;;;;;;10432529;28;20231;-70
2021/03/10 20:48:27;;;;;;;22.37;19.50;;;8.10;33.10;;;;;;10430750;28;20225;-70
2021/03/10 20:53:32;;;;;;;19.13;17.13;;;8.10;33.20;;;;;;10418857;28;20307;-70
2021/03/10 20:58:35;;;;;;;18.27;16.20;;;8.10;33.20;;;;;;10423140;28;20232;-67
2021/03/10 21:03:37;;;;;;;20.83;18.17;;;8.00;33.20;;;;;;10417783;28;20225;-67
2021/03/10 21:08:39;;;;;;;24.30;20.73;;;8.00;33.20;;;;;;10417356;28;20227;-68
2021/03/10 21:13:42;;;;;;;31.07;26.27;;;7.90;33.10;;;;;;10423264;28;20232;-68
2021/03/10 21:18:45;;;;;;;28.73;22.50;;;7.90;33.10;;;;;;10420610;28;20610;-68
2021/03/10 21:23:53;;;;;;;29.30;24.53;;;7.80;33.10;;;;;;10424623;28;20221;-68
2021/03/10 21:28:56;;;;;;;23.73;20.23;;;7.80;33.10;;;;;;10419331;28;20248;-68
2021/03/10 21:33:58;;;;;;;27.47;23.87;;;7.70;33.20;;;;;;10424494;28;20257;-68
2021/03/10 21:39:00;;;;;;;19.87;17.13;;;7.70;33.30;;;;;;10416080;28;20229;-71
2021/03/10 21:44:04;;;;;;;19.80;17.03;;;7.60;33.20;;;;;;10428772;28;20596;-68
2021/03/10 21:49:06;;;;;;;25.87;21.73;;;7.60;33.50;;;;;;10419242;28;20241;-72
2021/03/10 21:54:17;;;;;;;26.27;22.77;;;7.60;33.50;;;;;;10424845;28;20228;-72
2021/03/10 21:59:20;;;;;;;20.30;16.93;;;7.50;33.50;;;;;;10424228;28;20632;-72
2021/03/10 22:04:23;;;;;;;23.53;19.63;;;7.40;33.40;;;;;;10419830;28;20502;-72
2021/03/10 22:09:25;;;;;;;26.37;19.67;;;7.40;33.50;;;;;;10430121;28;20315;-69
2021/03/10 22:14:28;;;;;;;20.67;17.57;;;7.30;33.70;;;;;;10425698;28;20225;-72
2021/03/10 22:19:30;;;;;;;20.60;17.93;;;7.20;33.80;;;;;;10430068;28;20233;-72
2021/03/10 22:24:39;;;;;;;17.40;15.07;;;7.20;33.90;;;;;;10421152;28;20623;-72
2021/03/10 22:29:42;;;;;;;20.57;17.67;;;7.20;34.10;;;;;;10429645;28;20229;-72
2021/03/10 22:34:44;;;;;;;20.57;17.47;;;7.20;34.30;;;;;;10462137;22;20327;-74
2021/03/10 22:39:47;;;;;;;18.30;15.20;;;7.20;34.20;;;;;;10438121;28;20284;-75
2021/03/10 22:44:50;;;;;;;16.40;14.63;;;7.20;34.10;;;;;;10459949;28;20283;-75
2021/03/10 22:49:53;;;;;;;14.10;12.30;;;7.20;34.20;;;;;;10463886;28;20299;-74
2021/03/10 22:55:00;;;;;;;19.20;15.20;;;7.20;34.10;;;;;;10458333;28;20770;-75
2021/03/10 23:00:06;;;;;;;17.83;15.93;;;7.20;34.30;;;;;;10432637;28;20236;-75
2021/03/10 23:05:09;;;;;;;20.27;16.83;;;7.20;34.60;;;;;;10445029;28;20645;-75
2021/03/10 23:10:12;;;;;;;17.83;14.83;;;7.20;34.30;;;;;;10473240;28;20256;-75
2021/03/10 23:15:16;;;;;;;18.30;16.03;;;7.20;34.50;;;;;;10455968;28;20233;-75
2021/03/10 23:20:19;;;;;;;15.47;13.20;;;7.20;34.80;;;;;;10465096;28;20331;-75
2021/03/10 23:25:25;;;;;;;17.10;15.30;;;7.00;34.40;;;;;;10434871;28;20603;-75
2021/03/10 23:30:30;;;;;;;18.63;15.90;;;7.10;34.60;;;;;;10453968;28;20244;-75
2021/03/10 23:35:33;;;;;;;18.30;16.17;;;7.10;34.70;;;;;;10449479;28;20241;-75
2021/03/10 23:40:36;;;;;;;18.40;15.50;;;7.10;34.60;;;;;;10447554;28;20267;-74
2021/03/10 23:45:40;;;;;;;15.90;14.20;;;7.00;34.80;;;;;;10446309;28;20275;-75
2021/03/10 23:50:44;;;;;;;17.27;14.13;;;7.00;35.00;;;;;;10472837;28;20627;-75
2021/03/10 23:55:50;;;;;;;16.40;13.77;;;6.90;35.10;;;;;;10449893;28;20601;-75
